Main page
METAR-TAF:

METAR-TAF

Airports :

Ibiza Airport

Ibiza, Spain

latitude: 38-52N, longitude: 001-23E, elevation: 7 m

Current weather observation

The report was made 34 minutes ago, at 03:30 UTC
Wind 3 kt from the North, varying between North/Northwest and North/Northeast
Temperature 7°C
Humidity 93%
Pressure 1028 hPa
Visibility 10 km or more
no clouds below 1500 m and no cumulonimbus

METAR: LEIB 210330Z AUTO 35003KT 330V030 CAVOK 07/06 Q1028

Time: 05:04 (04:04 UTC)

Forecast

The report was made 2 hours and 4 minutes ago, at 02:00 UTC
Forecast valid from 21 at 03 UTC to 22 at 03 UTC
Wind 8 kt from the North/Northeast
Visibility 10 km or more
Few clouds at a height of 1000 ft
Scattered clouds at a height of 2000 ft
Probability 30% :
Temporary
from 21 at 03 UTC to 21 at 08 UTC
Visibility: 4000 m
mist

TAF: LEIB 210200Z 2103/2203 03008KT 9999 FEW010 SCT020 TX16/2113Z TN07/2106Z PROB30 TEMPO 2103/2108 4000 BR

Weather observations and forecasts of more than 4000 airports (METAR and TAF reports).

The available stations are represented by yellow and red dots on the map.

Hover mouse over dot to see the name of the station.

Then click to see weather observations and forecasts.

To change the map : click on the green buttons with a black cross to zoom in, on the green button with a dash to zoom out, or on the green arrows for adjacent maps.


METAR-TAF: